sensor_id;sensor_type;location;lat;lon;timestamp;noise_LAeq;noise_LA_min;noise_LA_max;noise_LA01;noise_LA95
70740;Laerm;58330;51.888;11.052;2024-01-30T00:00:01;31.31;30.19;32.59;;
70740;Laerm;58330;51.888;11.052;2024-01-30T00:02:28;31.28;30.12;32.61;;
70740;Laerm;58330;51.888;11.052;2024-01-30T00:04:54;31.28;30.07;32.37;;
70740;Laerm;58330;51.888;11.052;2024-01-30T00:07:21;31.42;30.06;32.49;;
70740;Laerm;58330;51.888;11.052;2024-01-30T00:09:49;31.38;30.24;32.70;;
70740;Laerm;58330;51.888;11.052;2024-01-30T00:12:16;31.42;30.40;32.59;;
70740;Laerm;58330;51.888;11.052;2024-01-30T00:14:42;31.50;30.30;32.93;;
70740;Laerm;58330;51.888;11.052;2024-01-30T00:17:09;31.43;30.12;32.66;;
70740;Laerm;58330;51.888;11.052;2024-01-30T00:19:35;31.48;30.37;32.61;;
70740;Laerm;58330;51.888;11.052;2024-01-30T00:22:02;31.47;30.33;32.65;;
70740;Laerm;58330;51.888;11.052;2024-01-30T00:24:28;31.49;30.27;32.56;;
70740;Laerm;58330;51.888;11.052;2024-01-30T00:26:56;31.54;30.27;32.83;;
70740;Laerm;58330;51.888;11.052;2024-01-30T00:29:22;31.58;30.36;32.88;;
70740;Laerm;58330;51.888;11.052;2024-01-30T00:31:50;31.58;30.40;32.64;;
70740;Laerm;58330;51.888;11.052;2024-01-30T00:34:17;31.53;30.28;32.54;;
70740;Laerm;58330;51.888;11.052;2024-01-30T00:36:44;31.55;30.16;32.81;;
70740;Laerm;58330;51.888;11.052;2024-01-30T00:39:10;31.58;30.24;32.57;;
70740;Laerm;58330;51.888;11.052;2024-01-30T00:41:37;31.56;30.43;32.66;;
70740;Laerm;58330;51.888;11.052;2024-01-30T00:44:05;31.53;30.27;32.63;;
70740;Laerm;58330;51.888;11.052;2024-01-30T00:46:31;31.56;30.28;32.64;;
70740;Laerm;58330;51.888;11.052;2024-01-30T00:48:58;31.60;30.42;32.69;;
70740;Laerm;58330;51.888;11.052;2024-01-30T00:51:24;31.56;30.15;32.67;;
70740;Laerm;58330;51.888;11.052;2024-01-30T00:53:51;31.50;30.25;32.91;;
70740;Laerm;58330;51.888;11.052;2024-01-30T00:56:18;31.45;30.16;32.72;;
70740;Laerm;58330;51.888;11.052;2024-01-30T00:58:45;31.36;30.02;32.50;;
70740;Laerm;58330;51.888;11.052;2024-01-30T01:01:13;31.29;30.03;32.34;;
70740;Laerm;58330;51.888;11.052;2024-01-30T01:03:39;31.23;29.94;32.27;;
70740;Laerm;58330;51.888;11.052;2024-01-30T01:06:08;31.15;29.99;32.44;;
70740;Laerm;58330;51.888;11.052;2024-01-30T01:08:35;31.09;29.83;32.26;;
70740;Laerm;58330;51.888;11.052;2024-01-30T01:11:01;31.03;29.75;32.35;;
70740;Laerm;58330;51.888;11.052;2024-01-30T01:13:28;30.99;29.59;32.04;;
70740;Laerm;58330;51.888;11.052;2024-01-30T01:15:55;30.94;29.71;32.06;;
70740;Laerm;58330;51.888;11.052;2024-01-30T01:18:22;30.93;29.80;31.96;;
70740;Laerm;58330;51.888;11.052;2024-01-30T01:20:49;30.92;29.71;31.96;;
70740;Laerm;58330;51.888;11.052;2024-01-30T01:23:15;30.87;29.68;31.93;;
70740;Laerm;58330;51.888;11.052;2024-01-30T01:25:42;30.84;29.64;31.96;;
70740;Laerm;58330;51.888;11.052;2024-01-30T01:28:08;30.79;29.52;32.00;;
70740;Laerm;58330;51.888;11.052;2024-01-30T01:30:35;30.86;29.67;32.01;;
70740;Laerm;58330;51.888;11.052;2024-01-30T01:33:01;30.91;29.65;31.96;;
70740;Laerm;58330;51.888;11.052;2024-01-30T01:35:29;30.84;29.51;32.00;;
70740;Laerm;58330;51.888;11.052;2024-01-30T01:37:56;30.81;29.60;31.88;;
70740;Laerm;58330;51.888;11.052;2024-01-30T01:40:24;30.81;29.47;32.10;;
70740;Laerm;58330;51.888;11.052;2024-01-30T01:42:51;30.59;29.29;31.92;;
70740;Laerm;58330;51.888;11.052;2024-01-30T01:45:18;30.52;29.45;31.54;;
70740;Laerm;58330;51.888;11.052;2024-01-30T01:47:46;30.42;29.27;31.56;;
70740;Laerm;58330;51.888;11.052;2024-01-30T01:50:13;30.48;29.28;31.59;;
70740;Laerm;58330;51.888;11.052;2024-01-30T01:52:41;30.63;29.50;31.78;;
70740;Laerm;58330;51.888;11.052;2024-01-30T01:55:08;30.85;29.62;31.93;;
70740;Laerm;58330;51.888;11.052;2024-01-30T01:57:34;30.95;29.68;32.01;;
70740;Laerm;58330;51.888;11.052;2024-01-30T02:00:01;30.96;29.66;32.21;;
70740;Laerm;58330;51.888;11.052;2024-01-30T02:02:30;31.01;29.93;32.26;;
70740;Laerm;58330;51.888;11.052;2024-01-30T02:04:56;31.05;29.81;32.15;;
70740;Laerm;58330;51.888;11.052;2024-01-30T02:07:23;31.04;29.75;32.27;;
70740;Laerm;58330;51.888;11.052;2024-01-30T02:09:51;31.04;29.82;32.24;;
70740;Laerm;58330;51.888;11.052;2024-01-30T02:12:17;31.00;29.91;32.31;;
70740;Laerm;58330;51.888;11.052;2024-01-30T02:14:44;31.02;29.67;32.10;;
70740;Laerm;58330;51.888;11.052;2024-01-30T02:17:11;31.00;29.78;32.11;;
70740;Laerm;58330;51.888;11.052;2024-01-30T02:19:37;31.05;29.73;32.21;;
70740;Laerm;58330;51.888;11.052;2024-01-30T02:22:05;31.03;29.56;32.12;;
70740;Laerm;58330;51.888;11.052;2024-01-30T02:24:32;31.00;29.90;32.13;;
70740;Laerm;58330;51.888;11.052;2024-01-30T02:26:59;31.03;29.50;32.19;;
70740;Laerm;58330;51.888;11.052;2024-01-30T02:29:25;31.01;29.76;32.17;;
70740;Laerm;58330;51.888;11.052;2024-01-30T02:31:52;31.01;29.88;32.29;;
70740;Laerm;58330;51.888;11.052;2024-01-30T02:34:18;31.06;29.66;32.21;;
70740;Laerm;58330;51.888;11.052;2024-01-30T02:36:45;31.04;29.76;32.11;;
70740;Laerm;58330;51.888;11.052;2024-01-30T02:39:13;31.02;29.63;32.27;;
70740;Laerm;58330;51.888;11.052;2024-01-30T02:41:39;30.99;29.91;32.07;;
70740;Laerm;58330;51.888;11.052;2024-01-30T02:44:06;30.97;29.86;32.10;;
70740;Laerm;58330;51.888;11.052;2024-01-30T02:46:32;30.92;29.72;32.07;;
70740;Laerm;58330;51.888;11.052;2024-01-30T02:48:59;30.86;29.77;31.99;;
70740;Laerm;58330;51.888;11.052;2024-01-30T02:51:26;30.76;29.53;31.87;;
70740;Laerm;58330;51.888;11.052;2024-01-30T02:53:52;30.64;29.47;31.82;;
70740;Laerm;58330;51.888;11.052;2024-01-30T02:56:20;30.57;29.38;31.64;;
70740;Laerm;58330;51.888;11.052;2024-01-30T02:58:46;30.55;29.39;31.62;;
70740;Laerm;58330;51.888;11.052;2024-01-30T03:01:13;30.50;29.37;31.68;;
70740;Laerm;58330;51.888;11.052;2024-01-30T03:03:39;30.48;29.20;31.65;;
70740;Laerm;58330;51.888;11.052;2024-01-30T03:06:06;30.41;29.24;31.42;;
70740;Laerm;58330;51.888;11.052;2024-01-30T03:08:32;30.33;29.18;31.38;;
70740;Laerm;58330;51.888;11.052;2024-01-30T03:10:59;30.24;28.70;31.37;;
70740;Laerm;58330;51.888;11.052;2024-01-30T03:13:27;30.17;28.95;31.31;;
70740;Laerm;58330;51.888;11.052;2024-01-30T03:15:54;30.10;28.71;31.46;;
70740;Laerm;58330;51.888;11.052;2024-01-30T03:18:20;30.07;28.88;31.29;;
70740;Laerm;58330;51.888;11.052;2024-01-30T03:20:47;30.03;28.99;31.30;;
70740;Laerm;58330;51.888;11.052;2024-01-30T03:23:13;30.00;28.80;31.18;;
70740;Laerm;58330;51.888;11.052;2024-01-30T03:25:40;30.03;28.95;31.27;;
70740;Laerm;58330;51.888;11.052;2024-01-30T03:28:06;30.05;28.96;31.12;;
70740;Laerm;58330;51.888;11.052;2024-01-30T03:30:35;30.07;28.93;31.15;;
70740;Laerm;58330;51.888;11.052;2024-01-30T03:33:01;29.98;28.58;31.19;;
70740;Laerm;58330;51.888;11.052;2024-01-30T03:35:28;30.01;28.93;31.10;;
70740;Laerm;58330;51.888;11.052;2024-01-30T03:37:54;30.08;28.81;31.18;;
70740;Laerm;58330;51.888;11.052;2024-01-30T03:40:21;30.13;28.87;31.33;;
70740;Laerm;58330;51.888;11.052;2024-01-30T03:42:47;30.13;29.03;31.33;;
70740;Laerm;58330;51.888;11.052;2024-01-30T03:45:14;30.13;29.05;31.17;;
70740;Laerm;58330;51.888;11.052;2024-01-30T03:47:44;30.07;29.05;31.11;;
70740;Laerm;58330;51.888;11.052;2024-01-30T03:50:10;30.11;28.60;31.28;;
70740;Laerm;58330;51.888;11.052;2024-01-30T03:52:37;30.10;28.88;31.28;;
70740;Laerm;58330;51.888;11.052;2024-01-30T03:55:04;30.04;28.96;31.15;;
70740;Laerm;58330;51.888;11.052;2024-01-30T03:57:30;30.05;28.97;31.31;;
70740;Laerm;58330;51.888;11.052;2024-01-30T03:59:56;30.09;28.95;31.18;;
70740;Laerm;58330;51.888;11.052;2024-01-30T04:02:23;30.10;28.95;31.11;;
70740;Laerm;58330;51.888;11.052;2024-01-30T04:04:51;30.05;28.61;31.12;;
70740;Laerm;58330;51.888;11.052;2024-01-30T04:07:17;30.05;28.88;31.12;;
70740;Laerm;58330;51.888;11.052;2024-01-30T04:09:44;30.05;28.82;31.02;;
70740;Laerm;58330;51.888;11.052;2024-01-30T04:12:10;30.08;28.84;31.10;;
70740;Laerm;58330;51.888;11.052;2024-01-30T04:14:37;30.11;28.91;31.29;;
70740;Laerm;58330;51.888;11.052;2024-01-30T04:17:04;30.12;28.94;31.13;;
70740;Laerm;58330;51.888;11.052;2024-01-30T04:19:30;30.07;28.88;31.16;;
70740;Laerm;58330;51.888;11.052;2024-01-30T04:21:58;30.13;29.04;31.21;;
70740;Laerm;58330;51.888;11.052;2024-01-30T04:24:25;30.18;29.05;31.31;;
70740;Laerm;58330;51.888;11.052;2024-01-30T04:26:51;30.19;28.91;31.25;;
70740;Laerm;58330;51.888;11.052;2024-01-30T04:29:18;30.10;28.97;31.27;;
70740;Laerm;58330;51.888;11.052;2024-01-30T04:31:45;30.09;28.83;31.25;;
70740;Laerm;58330;51.888;11.052;2024-01-30T04:34:11;30.09;28.90;31.13;;
70740;Laerm;58330;51.888;11.052;2024-01-30T04:36:38;30.08;28.90;31.28;;
70740;Laerm;58330;51.888;11.052;2024-01-30T04:39:06;30.02;28.92;31.05;;
70740;Laerm;58330;51.888;11.052;2024-01-30T04:41:33;29.99;28.65;31.17;;
70740;Laerm;58330;51.888;11.052;2024-01-30T04:44:00;29.97;28.62;30.98;;
70740;Laerm;58330;51.888;11.052;2024-01-30T04:46:26;29.94;28.82;31.01;;
70740;Laerm;58330;51.888;11.052;2024-01-30T04:48:53;29.91;28.72;31.12;;
70740;Laerm;58330;51.888;11.052;2024-01-30T04:51:20;29.88;28.70;31.04;;
70740;Laerm;58330;51.888;11.052;2024-01-30T04:53:47;29.86;28.42;31.01;;
70740;Laerm;58330;51.888;11.052;2024-01-30T04:56:15;29.84;28.67;31.87;;
70740;Laerm;58330;51.888;11.052;2024-01-30T04:58:42;29.79;28.51;30.94;;
70740;Laerm;58330;51.888;11.052;2024-01-30T05:01:08;29.78;28.45;30.95;;
70740;Laerm;58330;51.888;11.052;2024-01-30T05:03:35;29.71;28.38;30.80;;
70740;Laerm;58330;51.888;11.052;2024-01-30T05:06:01;29.70;28.55;30.86;;
70740;Laerm;58330;51.888;11.052;2024-01-30T05:08:28;29.70;28.50;30.86;;
70740;Laerm;58330;51.888;11.052;2024-01-30T05:10:55;29.64;28.50;30.65;;
70740;Laerm;58330;51.888;11.052;2024-01-30T05:13:22;29.57;28.25;30.63;;
70740;Laerm;58330;51.888;11.052;2024-01-30T05:15:49;29.51;28.14;30.79;;
70740;Laerm;58330;51.888;11.052;2024-01-30T05:18:15;29.49;28.42;30.77;;
70740;Laerm;58330;51.888;11.052;2024-01-30T05:20:42;29.35;28.12;39.68;;
70740;Laerm;58330;51.888;11.052;2024-01-30T05:23:08;29.31;28.05;30.44;;
70740;Laerm;58330;51.888;11.052;2024-01-30T05:25:35;29.42;28.25;30.58;;
70740;Laerm;58330;51.888;11.052;2024-01-30T05:28:01;29.50;28.38;30.52;;
70740;Laerm;58330;51.888;11.052;2024-01-30T05:30:29;29.53;28.31;30.74;;
70740;Laerm;58330;51.888;11.052;2024-01-30T05:32:56;29.50;28.30;30.89;;
70740;Laerm;58330;51.888;11.052;2024-01-30T05:35:22;29.34;28.21;30.52;;
70740;Laerm;58330;51.888;11.052;2024-01-30T05:37:52;29.21;27.87;30.25;;
70740;Laerm;58330;51.888;11.052;2024-01-30T05:40:18;29.21;28.18;30.24;;
70740;Laerm;58330;51.888;11.052;2024-01-30T05:42:45;29.24;28.05;30.54;;
70740;Laerm;58330;51.888;11.052;2024-01-30T05:45:11;29.35;28.13;30.53;;
70740;Laerm;58330;51.888;11.052;2024-01-30T05:47:39;29.41;28.21;30.61;;
70740;Laerm;58330;51.888;11.052;2024-01-30T05:50:06;29.45;28.26;30.71;;
70740;Laerm;58330;51.888;11.052;2024-01-30T05:52:33;29.58;28.26;30.67;;
70740;Laerm;58330;51.888;11.052;2024-01-30T05:54:59;29.59;28.16;30.85;;
70740;Laerm;58330;51.888;11.052;2024-01-30T05:57:25;29.58;28.44;30.61;;
70740;Laerm;58330;51.888;11.052;2024-01-30T05:59:52;29.58;28.27;30.72;;
70740;Laerm;58330;51.888;11.052;2024-01-30T06:02:19;29.62;28.39;30.63;;
70740;Laerm;58330;51.888;11.052;2024-01-30T06:04:47;29.63;28.48;30.63;;
70740;Laerm;58330;51.888;11.052;2024-01-30T06:07:13;29.53;28.18;30.84;;
70740;Laerm;58330;51.888;11.052;2024-01-30T06:09:40;29.50;28.26;30.65;;
70740;Laerm;58330;51.888;11.052;2024-01-30T06:12:07;29.53;28.26;30.86;;
70740;Laerm;58330;51.888;11.052;2024-01-30T06:14:33;29.55;28.39;30.70;;
70740;Laerm;58330;51.888;11.052;2024-01-30T06:17:00;29.50;28.30;30.54;;
70740;Laerm;58330;51.888;11.052;2024-01-30T06:19:26;29.50;28.33;30.78;;
70740;Laerm;58330;51.888;11.052;2024-01-30T06:21:54;29.53;28.32;30.77;;
70740;Laerm;58330;51.888;11.052;2024-01-30T06:24:21;29.52;28.20;30.59;;
70740;Laerm;58330;51.888;11.052;2024-01-30T06:26:47;29.48;28.41;30.69;;
70740;Laerm;58330;51.888;11.052;2024-01-30T06:29:14;29.53;28.28;30.70;;
70740;Laerm;58330;51.888;11.052;2024-01-30T06:31:41;29.53;28.29;30.57;;
70740;Laerm;58330;51.888;11.052;2024-01-30T06:34:08;29.50;28.36;30.77;;
70740;Laerm;58330;51.888;11.052;2024-01-30T06:36:35;29.52;28.37;30.71;;
70740;Laerm;58330;51.888;11.052;2024-01-30T06:39:02;29.58;28.41;30.87;;
70740;Laerm;58330;51.888;11.052;2024-01-30T06:41:29;29.40;28.19;30.49;;
70740;Laerm;58330;51.888;11.052;2024-01-30T06:43:56;29.39;28.15;31.08;;
70740;Laerm;58330;51.888;11.052;2024-01-30T06:46:22;29.53;28.14;30.76;;
70740;Laerm;58330;51.888;11.052;2024-01-30T06:48:49;29.65;28.31;31.00;;
70740;Laerm;58330;51.888;11.052;2024-01-30T06:51:15;29.57;28.18;30.77;;
70740;Laerm;58330;51.888;11.052;2024-01-30T06:53:42;29.56;28.48;30.58;;
70740;Laerm;58330;51.888;11.052;2024-01-30T06:56:10;29.66;28.42;30.78;;
70740;Laerm;58330;51.888;11.052;2024-01-30T06:58:37;29.86;28.72;30.98;;
70740;Laerm;58330;51.888;11.052;2024-01-30T07:01:04;29.89;28.42;31.14;;
70740;Laerm;58330;51.888;11.052;2024-01-30T07:03:30;29.81;28.71;30.86;;
70740;Laerm;58330;51.888;11.052;2024-01-30T07:05:57;29.68;28.39;30.66;;
70740;Laerm;58330;51.888;11.052;2024-01-30T07:08:24;29.68;28.36;30.74;;
70740;Laerm;58330;51.888;11.052;2024-01-30T07:10:50;29.67;28.55;30.75;;
70740;Laerm;58330;51.888;11.052;2024-01-30T07:13:21;29.67;28.31;30.69;;
70740;Laerm;58330;51.888;11.052;2024-01-30T07:15:48;29.63;28.60;30.67;;
70740;Laerm;58330;51.888;11.052;2024-01-30T07:18:14;29.55;28.12;30.68;;
70740;Laerm;58330;51.888;11.052;2024-01-30T07:20:41;29.49;28.27;30.69;;
70740;Laerm;58330;51.888;11.052;2024-01-30T07:23:11;29.61;28.39;30.89;;
70740;Laerm;58330;51.888;11.052;2024-01-30T07:25:39;29.77;28.55;31.05;;
70740;Laerm;58330;51.888;11.052;2024-01-30T07:28:06;29.92;28.76;31.01;;
70740;Laerm;58330;51.888;11.052;2024-01-30T07:30:35;30.02;28.96;31.09;;
70740;Laerm;58330;51.888;11.052;2024-01-30T07:33:02;30.07;28.71;31.21;;
70740;Laerm;58330;51.888;11.052;2024-01-30T07:35:29;30.18;29.11;31.33;;
70740;Laerm;58330;51.888;11.052;2024-01-30T07:37:55;30.18;28.96;31.24;;
70740;Laerm;58330;51.888;11.052;2024-01-30T07:40:23;30.19;29.11;31.25;;
70740;Laerm;58330;51.888;11.052;2024-01-30T07:42:50;30.14;28.95;31.28;;
70740;Laerm;58330;51.888;11.052;2024-01-30T07:45:16;30.01;28.88;30.99;;
70740;Laerm;58330;51.888;11.052;2024-01-30T07:47:48;29.99;28.43;31.10;;
70740;Laerm;58330;51.888;11.052;2024-01-30T07:50:15;30.15;28.86;31.21;;
70740;Laerm;58330;51.888;11.052;2024-01-30T07:52:42;30.08;28.92;31.17;;
70740;Laerm;58330;51.888;11.052;2024-01-30T07:55:08;30.08;29.10;31.15;;
70740;Laerm;58330;51.888;11.052;2024-01-30T07:57:35;30.07;28.97;31.44;;
70740;Laerm;58330;51.888;11.052;2024-01-30T08:00:02;29.93;28.50;31.02;;
70740;Laerm;58330;51.888;11.052;2024-01-30T08:02:32;29.83;28.59;30.92;;
70740;Laerm;58330;51.888;11.052;2024-01-30T08:05:00;29.70;28.46;30.82;;
70740;Laerm;58330;51.888;11.052;2024-01-30T08:07:27;29.71;28.48;30.74;;
70740;Laerm;58330;51.888;11.052;2024-01-30T08:09:56;29.90;28.61;30.93;;
70740;Laerm;58330;51.888;11.052;2024-01-30T08:12:22;30.04;28.77;31.51;;
70740;Laerm;58330;51.888;11.052;2024-01-30T08:14:49;30.56;29.16;31.73;;
70740;Laerm;58330;51.888;11.052;2024-01-30T08:17:15;30.46;29.08;31.56;;
70740;Laerm;58330;51.888;11.052;2024-01-30T08:19:42;30.68;29.37;31.83;;
70740;Laerm;58330;51.888;11.052;2024-01-30T08:22:11;31.17;29.92;32.38;;
70740;Laerm;58330;51.888;11.052;2024-01-30T08:24:37;31.50;30.30;32.78;;
70740;Laerm;58330;51.888;11.052;2024-01-30T08:27:05;31.59;30.26;32.64;;
70740;Laerm;58330;51.888;11.052;2024-01-30T08:29:38;31.57;30.29;32.65;;
70740;Laerm;58330;51.888;11.052;2024-01-30T08:32:05;31.59;30.12;32.84;;
70740;Laerm;58330;51.888;11.052;2024-01-30T08:34:32;31.50;30.37;32.60;;
70740;Laerm;58330;51.888;11.052;2024-01-30T08:37:01;31.61;30.26;32.71;;
70740;Laerm;58330;51.888;11.052;2024-01-30T08:39:33;31.53;29.93;32.78;;
70740;Laerm;58330;51.888;11.052;2024-01-30T08:42:00;30.97;29.60;32.10;;
70740;Laerm;58330;51.888;11.052;2024-01-30T08:44:27;30.95;29.77;32.12;;
70740;Laerm;58330;51.888;11.052;2024-01-30T08:46:53;31.39;29.91;32.76;;
70740;Laerm;58330;51.888;11.052;2024-01-30T08:49:20;31.69;30.52;33.14;;
70740;Laerm;58330;51.888;11.052;2024-01-30T08:51:47;31.68;30.51;32.90;;
70740;Laerm;58330;51.888;11.052;2024-01-30T08:54:14;31.80;30.65;33.05;;
70740;Laerm;58330;51.888;11.052;2024-01-30T08:56:43;31.81;30.60;33.05;;
70740;Laerm;58330;51.888;11.052;2024-01-30T08:59:10;31.77;30.30;32.99;;
70740;Laerm;58330;51.888;11.052;2024-01-30T09:01:36;31.79;30.45;32.93;;
70740;Laerm;58330;51.888;11.052;2024-01-30T09:04:03;31.69;30.31;33.08;;
70740;Laerm;58330;51.888;11.052;2024-01-30T09:06:30;31.34;29.77;32.92;;
70740;Laerm;58330;51.888;11.052;2024-01-30T09:08:56;31.16;29.71;32.46;;
70740;Laerm;58330;51.888;11.052;2024-01-30T09:11:23;30.86;29.53;32.15;;
70740;Laerm;58330;51.888;11.052;2024-01-30T09:13:51;30.61;29.11;31.98;;
70740;Laerm;58330;51.888;11.052;2024-01-30T09:16:20;30.62;29.16;31.96;;
70740;Laerm;58330;51.888;11.052;2024-01-30T09:18:47;30.69;29.37;31.92;;
70740;Laerm;58330;51.888;11.052;2024-01-30T09:21:16;30.47;28.74;31.66;;
70740;Laerm;58330;51.888;11.052;2024-01-30T09:23:42;30.26;28.75;31.74;;
70740;Laerm;58330;51.888;11.052;2024-01-30T09:26:09;30.09;28.82;32.62;;
70740;Laerm;58330;51.888;11.052;2024-01-30T09:28:37;30.21;28.83;31.37;;
70740;Laerm;58330;51.888;11.052;2024-01-30T09:31:09;30.14;28.48;31.31;;
70740;Laerm;58330;51.888;11.052;2024-01-30T09:33:37;30.08;28.67;31.47;;
70740;Laerm;58330;51.888;11.052;2024-01-30T09:36:04;30.19;28.97;31.35;;
70740;Laerm;58330;51.888;11.052;2024-01-30T09:38:31;30.05;28.48;31.28;;
70740;Laerm;58330;51.888;11.052;2024-01-30T09:40:58;29.83;28.61;31.20;;
70740;Laerm;58330;51.888;11.052;2024-01-30T09:43:27;29.82;28.35;31.05;;
70740;Laerm;58330;51.888;11.052;2024-01-30T09:45:58;29.63;28.21;31.08;;
70740;Laerm;58330;51.888;11.052;2024-01-30T09:48:31;29.62;28.29;30.82;;
70740;Laerm;58330;51.888;11.052;2024-01-30T09:50:58;29.50;28.22;30.63;;
70740;Laerm;58330;51.888;11.052;2024-01-30T09:53:25;29.60;28.15;30.97;;
70740;Laerm;58330;51.888;11.052;2024-01-30T09:55:52;29.84;28.55;31.21;;
70740;Laerm;58330;51.888;11.052;2024-01-30T09:58:19;29.63;28.42;31.12;;
70740;Laerm;58330;51.888;11.052;2024-01-30T10:00:46;29.50;28.22;30.81;;
70740;Laerm;58330;51.888;11.052;2024-01-30T10:03:13;29.32;27.76;30.53;;
70740;Laerm;58330;51.888;11.052;2024-01-30T10:05:41;29.33;27.98;30.73;;
70740;Laerm;58330;51.888;11.052;2024-01-30T10:08:12;29.15;27.93;30.49;;
70740;Laerm;58330;51.888;11.052;2024-01-30T10:10:39;28.93;27.64;30.17;;
70740;Laerm;58330;51.888;11.052;2024-01-30T10:13:05;28.92;27.65;30.07;;
70740;Laerm;58330;51.888;11.052;2024-01-30T10:15:35;28.82;27.36;30.19;;
70740;Laerm;58330;51.888;11.052;2024-01-30T10:18:04;28.68;27.40;30.05;;
70740;Laerm;58330;51.888;11.052;2024-01-30T10:20:31;28.54;27.29;29.90;;
70740;Laerm;58330;51.888;11.052;2024-01-30T10:22:59;28.46;27.10;29.74;;
70740;Laerm;58330;51.888;11.052;2024-01-30T10:25:26;28.44;27.18;29.87;;
70740;Laerm;58330;51.888;11.052;2024-01-30T10:27:53;28.47;26.98;29.92;;
70740;Laerm;58330;51.888;11.052;2024-01-30T10:30:20;28.59;27.45;29.79;;
70740;Laerm;58330;51.888;11.052;2024-01-30T10:32:47;28.67;27.50;30.04;;
70740;Laerm;58330;51.888;11.052;2024-01-30T10:35:13;28.66;27.25;29.89;;
70740;Laerm;58330;51.888;11.052;2024-01-30T10:37:41;28.65;27.19;29.95;;
70740;Laerm;58330;51.888;11.052;2024-01-30T10:40:12;28.78;27.37;29.92;;
70740;Laerm;58330;51.888;11.052;2024-01-30T10:42:42;28.77;27.40;29.91;;
70740;Laerm;58330;51.888;11.052;2024-01-30T10:45:09;33.09;27.38;67.45;;
70740;Laerm;58330;51.888;11.052;2024-01-30T10:47:37;28.44;27.12;29.70;;
70740;Laerm;58330;51.888;11.052;2024-01-30T10:50:06;28.35;27.10;29.55;;
70740;Laerm;58330;51.888;11.052;2024-01-30T10:52:33;28.33;27.10;29.59;;
70740;Laerm;58330;51.888;11.052;2024-01-30T10:55:00;28.25;26.96;29.45;;
70740;Laerm;58330;51.888;11.052;2024-01-30T10:57:30;28.11;26.74;29.19;;
70740;Laerm;58330;51.888;11.052;2024-01-30T10:59:59;28.02;26.58;29.28;;
70740;Laerm;58330;51.888;11.052;2024-01-30T11:02:26;28.07;26.85;29.27;;
70740;Laerm;58330;51.888;11.052;2024-01-30T11:04:57;27.90;-331.32;29.52;;
70740;Laerm;58330;51.888;11.052;2024-01-30T11:07:24;5.00;5.00;5.00;;
70740;Laerm;58330;51.888;11.052;2024-01-30T11:09:54;24.20;5.00;29.56;;
70740;Laerm;58330;51.888;11.052;2024-01-30T11:12:26;55.40;27.03;90.26;;
70740;Laerm;58330;51.888;11.052;2024-01-30T11:15:05;28.58;27.28;30.31;;
70740;Laerm;58330;51.888;11.052;2024-01-30T11:17:44;28.62;27.39;29.89;;
70740;Laerm;58330;51.888;11.052;2024-01-30T11:20:12;28.72;27.54;29.86;;
70740;Laerm;58330;51.888;11.052;2024-01-30T11:22:44;28.75;27.42;29.94;;
70740;Laerm;58330;51.888;11.052;2024-01-30T11:25:11;86.49;11.84;99.04;;
70740;Laerm;58330;51.888;11.052;2024-01-30T11:27:38;72.97;-10.27;84.36;;
70740;Laerm;58330;51.888;11.052;2024-01-30T11:30:07;67.11;-17.63;74.57;;
70740;Laerm;58330;51.888;11.052;2024-01-30T11:32:34;67.70;-10.32;76.10;;
70740;Laerm;58330;51.888;11.052;2024-01-30T11:35:02;68.27;0.84;76.56;;
70740;Laerm;58330;51.888;11.052;2024-01-30T11:37:30;64.15;-18.58;71.34;;
70740;Laerm;58330;51.888;11.052;2024-01-30T11:39:57;62.75;-3.95;70.23;;
70740;Laerm;58330;51.888;11.052;2024-01-30T11:42:25;60.01;-14.17;71.01;;
70740;Laerm;58330;51.888;11.052;2024-01-30T11:44:52;62.84;-27.96;80.05;;
70740;Laerm;58330;51.888;11.052;2024-01-30T11:47:20;73.88;-17.09;92.22;;
70740;Laerm;58330;51.888;11.052;2024-01-30T11:49:46;72.22;-5.05;88.05;;
70740;Laerm;58330;51.888;11.052;2024-01-30T11:52:14;75.12;-22.01;91.37;;
70740;Laerm;58330;51.888;11.052;2024-01-30T11:54:40;78.54;3.23;93.98;;
70740;Laerm;58330;51.888;11.052;2024-01-30T11:57:06;88.02;8.21;95.87;;
70740;Laerm;58330;51.888;11.052;2024-01-30T11:59:33;89.56;9.66;96.50;;
70740;Laerm;58330;51.888;11.052;2024-01-30T12:02:08;91.10;10.14;97.41;;
70740;Laerm;58330;51.888;11.052;2024-01-30T12:04:36;90.20;9.55;96.85;;
70740;Laerm;58330;51.888;11.052;2024-01-30T12:07:03;91.81;12.66;97.45;;
70740;Laerm;58330;51.888;11.052;2024-01-30T12:09:30;90.64;-0.34;98.53;;
70740;Laerm;58330;51.888;11.052;2024-01-30T12:11:57;91.80;-5.63;98.49;;
70740;Laerm;58330;51.888;11.052;2024-01-30T12:14:24;93.02;13.71;98.70;;
70740;Laerm;58330;51.888;11.052;2024-01-30T12:16:51;92.08;11.37;98.21;;
70740;Laerm;58330;51.888;11.052;2024-01-30T12:19:23;90.73;4.83;98.94;;
70740;Laerm;58330;51.888;11.052;2024-01-30T12:21:57;91.29;3.60;97.46;;
70740;Laerm;58330;51.888;11.052;2024-01-30T12:24:25;89.93;-3.14;96.73;;
70740;Laerm;58330;51.888;11.052;2024-01-30T12:26:51;87.43;-9.60;94.99;;
70740;Laerm;58330;51.888;11.052;2024-01-30T12:29:19;87.33;-33.01;93.95;;
70740;Laerm;58330;51.888;11.052;2024-01-30T12:31:46;84.90;-15.89;92.35;;
70740;Laerm;58330;51.888;11.052;2024-01-30T12:34:13;73.79;-328.31;88.81;;
70740;Laerm;58330;51.888;11.052;2024-01-30T12:36:41;28.57;27.31;29.87;;
70740;Laerm;58330;51.888;11.052;2024-01-30T12:39:12;28.55;27.31;29.78;;
70740;Laerm;58330;51.888;11.052;2024-01-30T12:41:42;28.56;27.25;29.82;;
70740;Laerm;58330;51.888;11.052;2024-01-30T12:44:08;28.62;27.38;30.01;;
70740;Laerm;58330;51.888;11.052;2024-01-30T12:46:35;28.62;27.16;29.80;;
70740;Laerm;58330;51.888;11.052;2024-01-30T12:49:02;28.63;27.36;29.85;;
70740;Laerm;58330;51.888;11.052;2024-01-30T12:51:28;28.67;27.36;29.87;;
70740;Laerm;58330;51.888;11.052;2024-01-30T12:53:54;28.73;27.54;29.92;;
70740;Laerm;58330;51.888;11.052;2024-01-30T12:56:22;28.75;27.46;30.10;;
70740;Laerm;58330;51.888;11.052;2024-01-30T12:58:49;28.76;27.37;30.25;;
70740;Laerm;58330;51.888;11.052;2024-01-30T13:01:15;28.82;27.38;30.29;;
70740;Laerm;58330;51.888;11.052;2024-01-30T13:03:43;28.88;27.62;30.39;;
70740;Laerm;58330;51.888;11.052;2024-01-30T13:06:10;28.90;27.38;30.11;;
70740;Laerm;58330;51.888;11.052;2024-01-30T13:08:37;28.93;27.62;30.08;;
70740;Laerm;58330;51.888;11.052;2024-01-30T13:11:04;28.97;27.75;30.15;;
70740;Laerm;58330;51.888;11.052;2024-01-30T13:13:32;29.06;27.79;30.16;;
70740;Laerm;58330;51.888;11.052;2024-01-30T13:15:58;29.07;27.73;30.26;;
70740;Laerm;58330;51.888;11.052;2024-01-30T13:18:25;29.07;27.86;30.32;;
70740;Laerm;58330;51.888;11.052;2024-01-30T13:20:51;29.05;27.89;30.25;;
70740;Laerm;58330;51.888;11.052;2024-01-30T13:23:18;29.00;27.63;30.28;;
70740;Laerm;58330;51.888;11.052;2024-01-30T13:25:45;28.95;27.51;30.22;;
70740;Laerm;58330;51.888;11.052;2024-01-30T13:28:11;28.95;27.72;30.12;;
70740;Laerm;58330;51.888;11.052;2024-01-30T13:30:39;28.99;27.64;30.35;;